Time;durP1;ratioP1;P1;durP2;ratioP2;P2;SDS_P1;SDS_P2;PMS_P1;PMS_P2;Temp;Humidity;BMP_temperature;BMP_pressure;BME280_temperature;BME280_humidity;BME280_pressure;Samples;Min_cycle;Max_cycle;Signal;HPM_P1;HPM_P2
2023/06/24 00:00:09;;;;;;;11.30;10.60;;;18.80;99.90;;;;;;5004144;28;20219;-91
2023/06/24 00:02:38;;;;;;;10.50;9.90;;;18.80;99.90;;;;;;5000732;28;20435;-90
2023/06/24 00:05:06;;;;;;;10.80;9.90;;;18.80;99.90;;;;;;5008964;28;20524;-91
2023/06/24 00:07:31;;;;;;;10.73;9.80;;;18.70;99.90;;;;;;5007134;28;20420;-92
2023/06/24 00:10:03;;;;;;;10.87;10.07;;;18.60;99.90;;;;;;5004227;28;20519;-93
2023/06/24 00:12:29;;;;;;;10.30;9.57;;;18.60;99.90;;;;;;5024325;28;20193;-96
2023/06/24 00:14:55;;;;;;;11.40;10.40;;;18.60;99.90;;;;;;5023456;28;20485;-94
2023/06/24 00:17:22;;;;;;;9.87;9.27;;;18.60;99.90;;;;;;5025590;28;20281;-96
2023/06/24 00:19:49;;;;;;;12.57;11.37;;;18.50;99.90;;;;;;4995828;28;20663;-91
2023/06/24 00:22:14;;;;;;;10.60;9.80;;;17.60;99.90;;;;;;5004165;28;20427;-90
2023/06/24 00:24:42;;;;;;;9.87;9.20;;;18.50;99.90;;;;;;5003765;28;20454;-90
2023/06/24 00:27:08;;;;;;;11.20;10.27;;;18.40;99.90;;;;;;4994158;28;20570;-92
2023/06/24 00:29:33;;;;;;;10.60;9.50;;;18.40;99.90;;;;;;5000660;28;20468;-91
2023/06/24 00:32:00;;;;;;;10.10;9.50;;;18.30;99.90;;;;;;5004693;28;20205;-91
2023/06/24 00:34:25;;;;;;;11.43;10.67;;;18.30;99.90;;;;;;4995649;28;20244;-91
2023/06/24 00:36:58;;;;;;;9.97;9.37;;;18.40;99.90;;;;;;4996872;28;20440;-91
2023/06/24 00:39:23;;;;;;;10.73;10.07;;;18.40;99.90;;;;;;5023573;28;20247;-91
2023/06/24 00:41:49;;;;;;;10.97;10.13;;;18.50;99.90;;;;;;5005799;28;20431;-91
2023/06/24 00:44:15;;;;;;;10.23;9.43;;;18.40;99.90;;;;;;4998482;28;20211;-92
2023/06/24 00:46:41;;;;;;;11.07;9.93;;;18.30;99.90;;;;;;5001699;28;20212;-90
2023/06/24 00:49:07;;;;;;;11.30;10.40;;;18.40;99.90;;;;;;5003365;28;20463;-90
2023/06/24 00:51:35;;;;;;;10.70;9.97;;;18.50;99.90;;;;;;5003759;28;20276;-90
2023/06/24 00:54:01;;;;;;;10.43;9.90;;;18.40;99.90;;;;;;5000404;28;20281;-89
2023/06/24 00:56:33;;;;;;;11.70;10.90;;;18.40;99.90;;;;;;4997555;28;20447;-90
2023/06/24 00:59:02;;;;;;;10.87;9.50;;;18.30;99.90;;;;;;5004210;28;20463;-92
2023/06/24 01:01:35;;;;;;;10.57;9.80;;;18.30;99.90;;;;;;4998327;28;20491;-90
2023/06/24 01:04:02;;;;;;;11.97;10.87;;;18.30;99.90;;;;;;4997339;28;20460;-91
2023/06/24 01:06:29;;;;;;;12.37;11.17;;;18.20;99.90;;;;;;5003427;28;20420;-90
2023/06/24 01:09:00;;;;;;;10.10;9.47;;;18.20;99.90;;;;;;4987461;28;20490;-91
2023/06/24 01:11:27;;;;;;;10.80;10.03;;;18.20;99.90;;;;;;5004439;28;20547;-89
2023/06/24 01:13:52;;;;;;;10.93;10.13;;;18.20;99.90;;;;;;5019084;28;20668;-91
2023/06/24 01:16:56;;;;;;;10.57;9.47;;;18.10;99.90;;;;;;5004947;28;20484;-90
2023/06/24 01:19:40;;;;;;;12.10;11.17;;;18.10;99.90;;;;;;4996648;28;20470;-91
2023/06/24 01:22:41;;;;;;;10.13;9.27;;;18.20;99.90;;;;;;5007018;28;20448;-91
2023/06/24 01:25:45;;;;;;;10.73;9.93;;;18.20;99.90;;;;;;5013021;28;20431;-90
2023/06/24 01:28:48;;;;;;;10.20;9.30;;;18.10;99.90;;;;;;5016653;28;20420;-90
2023/06/24 01:31:48;;;;;;;10.73;9.93;;;18.00;99.90;;;;;;5019860;28;20459;-91
2023/06/24 01:34:33;;;;;;;9.67;9.03;;;17.90;99.90;;;;;;5019762;28;20470;-91
2023/06/24 01:37:17;;;;;;;9.93;9.43;;;17.80;99.90;;;;;;5019610;28;20498;-91
2023/06/24 01:40:10;;;;;;;10.93;10.00;;;17.90;99.90;;;;;;5018270;28;20445;-91
2023/06/24 01:42:39;;;;;;;9.50;8.90;;;17.90;99.90;;;;;;5025857;28;20439;-91
2023/06/24 01:45:12;;;;;;;13.40;10.17;;;17.90;99.90;;;;;;5023954;28;20598;-90
2023/06/24 01:47:43;;;;;;;10.23;9.70;;;17.90;99.90;;;;;;5026146;28;20495;-91
2023/06/24 01:50:12;;;;;;;10.80;9.90;;;17.90;99.90;;;;;;5018308;28;20790;-90
2023/06/24 01:52:41;;;;;;;10.73;10.03;;;18.00;99.90;;;;;;5023665;28;20498;-89
2023/06/24 01:55:11;;;;;;;10.40;9.70;;;17.80;99.90;;;;;;5005047;28;20458;-89
2023/06/24 01:57:41;;;;;;;10.37;9.67;;;17.80;99.90;;;;;;5015123;28;20443;-91
2023/06/24 02:00:09;;;;;;;10.37;9.50;;;17.80;99.90;;;;;;5010538;28;20419;-90
2023/06/24 02:02:39;;;;;;;11.03;10.33;;;17.70;99.90;;;;;;5017734;28;20468;-90
2023/06/24 02:05:06;;;;;;;10.63;9.93;;;17.70;99.90;;;;;;5023417;28;20407;-89
2023/06/24 02:07:33;;;;;;;9.83;9.23;;;17.70;99.90;;;;;;5027828;28;20476;-90
2023/06/24 02:10:03;;;;;;;10.40;9.70;;;17.60;99.90;;;;;;5013996;28;20552;-89
2023/06/24 02:12:29;;;;;;;12.27;11.03;;;17.60;99.90;;;;;;5023090;28;20428;-89
2023/06/24 02:14:56;;;;;;;11.17;10.00;;;17.70;99.90;;;;;;5023318;28;20446;-90
2023/06/24 02:17:25;;;;;;;11.90;10.97;;;17.70;99.90;;;;;;5020927;28;20454;-91
2023/06/24 02:19:53;;;;;;;10.50;9.87;;;17.70;99.90;;;;;;5027853;28;20419;-92
2023/06/24 02:22:21;;;;;;;9.63;8.93;;;17.70;99.90;;;;;;5017955;28;20515;-91
2023/06/24 02:24:49;;;;;;;10.57;9.90;;;17.70;99.90;;;;;;5023460;28;20448;-90
2023/06/24 02:27:15;;;;;;;11.07;10.27;;;17.70;99.90;;;;;;5019456;28;20462;-90
2023/06/24 02:29:41;;;;;;;10.30;9.70;;;17.60;99.90;;;;;;5017347;28;20479;-90
2023/06/24 02:32:08;;;;;;;10.20;9.40;;;17.60;99.90;;;;;;5017777;28;20455;-90
2023/06/24 02:34:34;;;;;;;10.20;9.60;;;17.70;99.90;;;;;;5013207;28;20629;-90
2023/06/24 02:36:59;;;;;;;10.30;9.57;;;17.60;99.90;;;;;;5008612;28;20450;-89
2023/06/24 02:39:25;;;;;;;11.20;10.50;;;17.60;99.90;;;;;;5009771;28;20212;-90
2023/06/24 02:41:51;;;;;;;10.20;9.50;;;17.60;99.90;;;;;;5002557;28;20181;-89
2023/06/24 02:44:16;;;;;;;10.77;9.87;;;17.50;99.90;;;;;;4994356;28;20866;-90
2023/06/24 02:46:46;;;;;;;9.80;9.13;;;17.40;99.90;;;;;;4993783;28;20204;-89
2023/06/24 02:49:14;;;;;;;10.17;9.57;;;17.50;99.90;;;;;;4998762;28;20243;-90
2023/06/24 02:51:41;;;;;;;10.00;9.23;;;17.60;99.90;;;;;;5011589;28;20527;-90
2023/06/24 02:54:07;;;;;;;10.30;9.70;;;17.60;99.90;;;;;;5007913;28;20473;-90
2023/06/24 02:56:34;;;;;;;10.57;9.77;;;17.50;99.90;;;;;;5008598;28;20455;-91
2023/06/24 02:59:28;;;;;;;9.47;8.83;;;17.50;99.90;;;;;;5008457;28;20447;-91
2023/06/24 03:01:55;;;;;;;10.57;9.87;;;17.60;99.90;;;;;;5013496;28;20447;-90
2023/06/24 03:04:21;;;;;;;9.73;9.13;;;17.50;99.90;;;;;;5008382;28;20462;-90
2023/06/24 03:06:49;;;;;;;10.90;10.17;;;17.50;99.90;;;;;;5004695;28;20507;-90
2023/06/24 03:09:15;;;;;;;10.57;9.60;;;17.50;99.90;;;;;;4992535;28;20202;-90
2023/06/24 03:11:45;;;;;;;9.47;8.87;;;17.50;99.90;;;;;;5008355;28;20439;-90
2023/06/24 03:14:11;;;;;;;10.17;9.60;;;17.40;99.90;;;;;;4989315;28;20448;-89
2023/06/24 03:16:38;;;;;;;10.70;10.10;;;17.30;99.90;;;;;;5005949;28;20474;-90
2023/06/24 03:19:04;;;;;;;10.17;9.37;;;17.30;99.90;;;;;;4992093;28;20499;-90
2023/06/24 03:21:31;;;;;;;9.97;9.37;;;17.30;99.90;;;;;;5006338;28;20435;-90
2023/06/24 03:23:58;;;;;;;10.67;9.97;;;17.20;99.90;;;;;;4996967;28;20505;-90
2023/06/24 03:26:31;;;;;;;11.20;10.30;;;17.20;99.90;;;;;;4991977;28;20510;-91
2023/06/24 03:28:57;;;;;;;12.40;11.30;;;17.20;99.90;;;;;;5002024;28;20460;-90
2023/06/24 03:31:23;;;;;;;13.40;12.50;;;17.20;99.90;;;;;;4998266;28;20450;-90
2023/06/24 03:33:49;;;;;;;12.60;11.67;;;17.20;99.90;;;;;;4996126;28;20200;-90
2023/06/24 03:36:17;;;;;;;11.70;10.80;;;17.10;99.90;;;;;;4999477;28;20193;-90
2023/06/24 03:38:43;;;;;;;11.83;11.03;;;17.10;99.90;;;;;;4994367;28;20475;-91
2023/06/24 03:41:08;;;;;;;12.90;11.60;;;17.10;99.90;;;;;;5006218;28;20431;-90
2023/06/24 03:43:34;;;;;;;11.73;10.83;;;17.10;99.90;;;;;;4995129;28;20223;-89
2023/06/24 03:46:00;;;;;;;11.93;10.70;;;17.10;99.90;;;;;;5010068;28;20191;-91
2023/06/24 03:48:26;;;;;;;11.10;10.27;;;17.20;99.90;;;;;;4998970;28;20222;-91
2023/06/24 03:50:51;;;;;;;10.50;9.77;;;17.10;99.90;;;;;;4998500;28;20188;-89
2023/06/24 03:53:17;;;;;;;9.83;9.23;;;17.20;99.90;;;;;;4999227;28;20574;-89
2023/06/24 03:55:42;;;;;;;10.60;9.97;;;17.20;99.90;;;;;;5003521;28;20177;-90
2023/06/24 03:58:09;;;;;;;10.37;9.67;;;17.20;99.90;;;;;;4993606;28;20353;-90
2023/06/24 04:00:39;;;;;;;11.93;11.23;;;17.20;99.90;;;;;;4998213;28;20184;-90
2023/06/24 04:03:07;;;;;;;12.93;11.93;;;17.20;99.90;;;;;;4995440;28;20466;-90
2023/06/24 04:05:34;;;;;;;13.67;12.50;;;17.30;99.90;;;;;;5002017;28;20522;-90
2023/06/24 04:07:59;;;;;;;14.43;13.27;;;17.40;99.90;;;;;;4989483;28;20444;-90
2023/06/24 04:10:25;;;;;;;11.23;10.43;;;17.30;99.90;;;;;;4989051;28;20464;-90
2023/06/24 04:12:51;;;;;;;12.67;11.53;;;17.40;99.90;;;;;;4997589;28;20600;-90
2023/06/24 04:15:17;;;;;;;12.43;11.47;;;17.40;99.90;;;;;;4991522;28;21037;-90
2023/06/24 04:17:42;;;;;;;13.70;12.30;;;17.40;99.90;;;;;;4998009;28;20213;-90
2023/06/24 04:20:11;;;;;;;11.43;10.53;;;17.50;99.90;;;;;;5008947;28;20220;-94
2023/06/24 04:22:38;;;;;;;12.93;12.13;;;17.70;99.90;;;;;;5015377;28;20196;-95
2023/06/24 04:25:05;;;;;;;11.93;10.40;;;17.70;99.90;;;;;;5016090;28;20547;-95
2023/06/24 04:27:34;;;;;;;10.53;9.60;;;17.70;99.90;;;;;;5017086;28;20428;-91
2023/06/24 04:30:22;;;;;;;10.00;9.33;;;17.70;99.90;;;;;;5022063;28;20518;-96
2023/06/24 04:32:47;;;;;;;11.27;10.20;;;17.90;99.90;;;;;;5018334;28;20427;-94
2023/06/24 04:35:18;;;;;;;10.87;10.27;;;17.90;99.90;;;;;;5026175;28;20528;-96
2023/06/24 04:37:50;;;;;;;10.33;9.73;;;17.90;99.90;;;;;;5018434;28;20260;-95
2023/06/24 04:40:22;;;;;;;10.97;10.13;;;18.00;99.90;;;;;;5014005;28;20475;-95
2023/06/24 04:42:48;;;;;;;10.63;9.90;;;18.00;99.90;;;;;;5039231;28;20431;-95
2023/06/24 04:45:14;;;;;;;10.57;8.90;;;17.90;99.90;;;;;;5021241;28;20427;-95
2023/06/24 04:47:43;;;;;;;10.57;9.77;;;17.80;99.90;;;;;;5016408;28;20431;-96
2023/06/24 04:50:12;;;;;;;13.83;10.30;;;17.80;99.90;;;;;;5031742;28;20478;-95
2023/06/24 04:53:15;;;;;;;9.33;8.60;;;17.80;99.90;;;;;;5029733;28;20432;-95
2023/06/24 04:55:41;;;;;;;9.70;8.77;;;17.90;99.90;;;;;;5019919;23;20499;-86
2023/06/24 04:58:06;;;;;;;10.07;9.30;;;17.90;99.90;;;;;;5004047;28;20424;-85
2023/06/24 05:00:32;;;;;;;8.93;8.33;;;17.90;99.90;;;;;;4994707;28;20208;-86
2023/06/24 05:02:58;;;;;;;8.90;8.40;;;18.10;99.90;;;;;;5004630;28;20220;-85
2023/06/24 05:05:23;;;;;;;10.13;9.30;;;18.30;99.90;;;;;;4999165;28;20638;-87
2023/06/24 05:07:49;;;;;;;9.73;9.03;;;18.30;99.90;;;;;;5012211;28;20251;-87
2023/06/24 05:10:15;;;;;;;9.97;9.27;;;18.60;99.90;;;;;;4983750;28;20350;-88
2023/06/24 05:12:41;;;;;;;11.13;10.27;;;18.90;99.90;;;;;;5001831;28;20188;-88
2023/06/24 05:15:10;;;;;;;9.00;8.13;;;19.20;99.90;;;;;;5002754;28;20196;-88
2023/06/24 05:17:35;;;;;;;9.60;8.70;;;19.50;99.90;;;;;;5011696;28;20545;-88
2023/06/24 05:20:01;;;;;;;9.83;9.10;;;19.70;99.90;;;;;;5014563;28;20451;-87
2023/06/24 05:22:30;;;;;;;9.10;8.30;;;20.00;99.90;;;;;;5010514;28;20220;-87
2023/06/24 05:24:55;;;;;;;9.73;9.10;;;20.30;99.90;;;;;;5009988;28;20195;-86
2023/06/24 05:27:21;;;;;;;11.37;9.37;;;20.80;99.90;;;;;;4993274;28;20447;-87
2023/06/24 05:29:46;;;;;;;9.03;8.43;;;21.20;99.90;;;;;;4993021;28;20715;-86
2023/06/24 05:32:12;;;;;;;9.13;8.53;;;21.50;99.90;;;;;;5007447;28;20408;-86
2023/06/24 05:34:38;;;;;;;11.10;10.33;;;21.70;99.90;;;;;;5010935;28;20185;-84
2023/06/24 05:37:03;;;;;;;10.47;9.77;;;21.80;99.90;;;;;;5008414;28;20215;-85
2023/06/24 05:39:30;;;;;;;11.20;10.30;;;22.00;99.90;;;;;;4999297;28;20185;-86
2023/06/24 05:42:08;;;;;;;13.10;12.00;;;22.00;99.90;;;;;;4998822;28;20558;-86
2023/06/24 05:44:34;;;;;;;11.73;10.70;;;22.10;99.90;;;;;;5010810;28;20977;-85
2023/06/24 05:46:59;;;;;;;11.80;10.73;;;22.10;99.90;;;;;;5019043;28;20431;-86
2023/06/24 05:49:25;;;;;;;12.33;11.43;;;22.00;99.90;;;;;;5013756;28;20284;-85
2023/06/24 05:51:50;;;;;;;12.27;11.23;;;22.00;99.90;;;;;;5016896;28;20187;-85
2023/06/24 05:54:16;;;;;;;11.93;11.00;;;21.90;99.90;;;;;;5015103;28;20184;-86
2023/06/24 05:56:41;;;;;;;12.33;11.43;;;21.80;99.90;;;;;;5012040;28;20228;-86
2023/06/24 05:59:07;;;;;;;12.23;11.50;;;21.90;99.90;;;;;;5002857;28;20184;-88
2023/06/24 06:01:33;;;;;;;10.97;10.30;;;22.10;99.90;;;;;;5018488;28;20181;-87
2023/06/24 06:03:58;;;;;;;10.93;10.30;;;22.50;99.90;;;;;;5008949;28;20200;-85
2023/06/24 06:06:25;;;;;;;11.33;10.63;;;22.90;99.90;;;;;;5010968;28;20224;-87
2023/06/24 06:08:52;;;;;;;10.37;9.77;;;23.50;99.90;;;;;;5005357;28;20676;-87
2023/06/24 06:11:17;;;;;;;13.37;9.90;;;24.00;99.90;;;;;;5018317;28;20455;-87
2023/06/24 06:13:43;;;;;;;10.03;9.43;;;24.60;99.90;;;;;;5001892;28;20900;-87
2023/06/24 06:16:11;;;;;;;10.90;9.87;;;25.10;99.90;;;;;;5003701;28;20536;-88
2023/06/24 06:18:40;;;;;;;10.40;9.60;;;25.50;99.90;;;;;;5007833;28;20277;-81
2023/06/24 06:21:06;;;;;;;11.23;10.53;;;25.90;99.90;;;;;;5015088;28;20493;-87
2023/06/24 06:23:39;;;;;;;11.77;10.87;;;25.50;99.90;;;;;;5011157;28;21000;-85
2023/06/24 06:26:10;;;;;;;11.07;10.47;;;25.20;99.90;;;;;;5010602;28;20463;-86
2023/06/24 06:28:38;;;;;;;12.60;11.70;;;24.90;99.90;;;;;;4991850;28;20431;-87
2023/06/24 06:31:06;;;;;;;13.00;12.00;;;24.70;99.90;;;;;;4989981;28;20423;-89
2023/06/24 06:33:51;;;;;;;12.33;11.40;;;24.80;99.90;;;;;;5006318;28;20425;-86
2023/06/24 06:36:17;;;;;;;13.47;12.37;;;25.30;99.90;;;;;;5001591;28;20509;-89
2023/06/24 06:39:11;;;;;;;12.03;11.33;;;25.20;99.90;;;;;;5009833;28;20440;-88
2023/06/24 06:41:59;;;;;;;13.20;12.40;;;25.70;99.90;;;;;;5026752;28;20208;-84
2023/06/24 06:44:37;;;;;;;11.43;10.63;;;26.30;99.90;;;;;;5022379;28;20442;-85
2023/06/24 06:49:51;;;;;;;13.20;12.10;;;26.40;99.90;;;;;;5022326;28;20463;-86
2023/06/24 06:52:27;;;;;;;11.90;11.20;;;26.60;99.90;;;;;;5017985;28;20449;-87
2023/06/24 06:55:01;;;;;;;13.07;12.20;;;27.10;99.90;;;;;;5016804;28;20177;-87
2023/06/24 06:57:38;;;;;;;15.03;14.03;;;27.30;99.90;;;;;;5046461;28;20432;-88
2023/06/24 07:00:13;;;;;;;16.07;14.53;;;27.20;99.90;;;;;;5035300;28;20505;-89
2023/06/24 07:02:39;;;;;;;14.97;13.97;;;26.90;99.90;;;;;;5014163;28;20443;-86
2023/06/24 07:05:09;;;;;;;15.30;13.90;;;27.50;99.70;;;;;;5030357;28;20446;-88
2023/06/24 07:07:43;;;;;;;13.67;12.80;;;27.70;98.00;;;;;;5030945;28;20532;-87
2023/06/24 07:10:16;;;;;;;15.30;14.17;;;27.80;97.30;;;;;;5047779;28;20526;-85
2023/06/24 07:12:42;;;;;;;13.37;12.40;;;27.50;98.60;;;;;;5028279;28;20427;-88
2023/06/24 07:15:08;;;;;;;15.27;14.17;;;28.20;97.40;;;;;;5037204;28;20946;-88
2023/06/24 07:17:35;;;;;;;15.33;14.20;;;28.30;96.10;;;;;;5041266;28;20422;-91
2023/06/24 07:20:01;;;;;;;15.27;14.37;;;28.40;95.40;;;;;;5011827;28;20453;-86
2023/06/24 07:23:02;;;;;;;15.23;14.13;;;28.30;94.80;;;;;;5044008;28;20506;-87
2023/06/24 07:25:31;;;;;;;15.30;14.00;;;28.50;95.10;;;;;;5036021;28;20275;-87
2023/06/24 07:28:10;;;;;;;15.20;14.13;;;28.90;93.90;;;;;;5037238;28;20715;-88
2023/06/24 07:30:51;;;;;;;16.97;15.43;;;29.40;92.50;;;;;;5035594;28;20458;-88
2023/06/24 07:34:00;;;;;;;15.90;14.90;;;28.90;91.60;;;;;;5040020;28;20414;-87
2023/06/24 07:36:25;;;;;;;16.40;15.20;;;29.10;91.90;;;;;;5036456;28;20427;-85
2023/06/24 07:39:20;;;;;;;18.40;17.00;;;29.70;90.40;;;;;;5026509;28;20789;-87
2023/06/24 07:42:03;;;;;;;16.63;15.57;;;30.00;87.10;;;;;;5027102;28;20235;-82
2023/06/24 07:44:28;;;;;;;17.40;15.90;;;30.00;86.80;;;;;;5020210;28;20478;-84
2023/06/24 07:47:12;;;;;;;;;;;;;;;;;;;;;
2023/06/24 07:49:52;;;;;;;15.33;14.10;;;30.80;82.00;;;;;;5026144;28;20207;-87
2023/06/24 07:52:18;;;;;;;16.83;15.60;;;31.30;79.20;;;;;;5028113;28;20579;-87
2023/06/24 07:55:18;;;;;;;16.87;15.77;;;31.50;75.10;;;;;;5021699;28;20459;-84
2023/06/24 07:57:46;;;;;;;17.77;16.07;;;31.40;73.50;;;;;;5018287;28;20699;-88
2023/06/24 08:00:43;;;;;;;;;;;;;;;;;;;;;
2023/06/24 08:03:50;;;;;;;16.97;15.60;;;31.10;73.00;;;;;;4994014;28;20459;-91
2023/06/24 08:12:11;;;;;;;16.00;14.93;;;33.10;64.20;;;;;;5013616;23;20472;-86
2023/06/24 08:14:45;;;;;;;15.63;14.70;;;33.60;60.40;;;;;;5000290;28;20435;-88
2023/06/24 08:17:20;;;;;;;15.97;14.80;;;33.30;59.50;;;;;;4986493;28;20440;-87
2023/06/24 08:20:13;;;;;;;16.10;14.83;;;33.40;59.20;;;;;;4991010;28;20514;-85
2023/06/24 08:22:44;;;;;;;14.67;13.57;;;34.00;58.70;;;;;;5046236;23;20412;-86
2023/06/24 08:25:32;;;;;;;12.97;12.03;;;34.30;58.00;;;;;;5314196;23;20502;-86
2023/06/24 08:28:19;;;;;;;13.13;12.00;;;34.90;56.60;;;;;;5046872;28;20423;-88
2023/06/24 08:30:48;;;;;;;14.40;13.43;;;35.40;55.40;;;;;;5041423;28;20477;-86
2023/06/24 08:33:26;;;;;;;14.00;13.13;;;35.60;54.20;;;;;;5142414;23;20468;-87
2023/06/24 08:36:08;;;;;;;12.90;12.00;;;35.10;53.70;;;;;;5033772;28;20437;-88
2023/06/24 08:38:35;;;;;;;11.90;11.10;;;34.70;53.30;;;;;;5109210;23;20490;-89
2023/06/24 08:41:51;;;;;;;12.50;11.80;;;35.00;53.00;;;;;;5046145;28;20458;-86
2023/06/24 08:44:26;;;;;;;11.60;10.83;;;35.10;52.00;;;;;;5039894;28;20454;-86
2023/06/24 08:47:02;;;;;;;10.33;9.63;;;34.60;52.70;;;;;;5031640;28;20442;-84
2023/06/24 08:49:50;;;;;;;11.07;10.17;;;35.20;52.30;;;;;;5014565;28;20462;-82
2023/06/24 08:52:26;;;;;;;10.40;9.90;;;35.30;51.10;;;;;;5022293;28;20520;-85
2023/06/24 08:55:07;;;;;;;9.57;8.97;;;35.70;51.50;;;;;;5018395;28;20469;-86
2023/06/24 08:57:36;;;;;;;8.53;7.97;;;35.10;51.20;;;;;;5023662;28;20426;-85
2023/06/24 09:00:14;;;;;;;8.83;8.17;;;34.80;49.40;;;;;;5018331;28;20924;-84
2023/06/24 09:02:45;;;;;;;7.80;7.40;;;34.90;49.50;;;;;;5027228;28;20445;-86
2023/06/24 09:05:17;;;;;;;7.67;7.27;;;35.00;49.30;;;;;;5019655;28;20432;-85
2023/06/24 09:07:49;;;;;;;8.73;8.03;;;35.60;48.40;;;;;;5017141;28;20426;-84
2023/06/24 09:10:36;;;;;;;8.20;7.80;;;35.80;47.50;;;;;;5013015;28;20482;-85
2023/06/24 09:13:07;;;;;;;7.30;6.80;;;36.30;47.50;;;;;;5019662;28;20496;-84
2023/06/24 09:15:45;;;;;;;7.90;7.50;;;36.70;46.60;;;;;;5008471;28;20800;-84
2023/06/24 09:18:20;;;;;;;9.20;8.50;;;36.30;46.60;;;;;;5018324;28;20481;-83
2023/06/24 09:20:52;;;;;;;8.20;7.60;;;36.50;47.00;;;;;;5004043;28;20806;-84
2023/06/24 09:33:40;;;;;;;5.90;5.70;;;36.90;44.40;;;;;;5020600;28;20477;-88
2023/06/24 09:36:21;;;;;;;6.00;5.70;;;35.80;44.40;;;;;;5042875;28;20470;-87
2023/06/24 09:38:48;;;;;;;6.57;6.17;;;35.50;44.10;;;;;;5026864;28;20469;-87
2023/06/24 09:41:14;;;;;;;5.27;5.10;;;35.60;44.70;;;;;;5032170;28;20430;-87
2023/06/24 09:43:44;;;;;;;4.47;4.27;;;36.10;44.30;;;;;;5031644;28;20639;-89
2023/06/24 09:46:21;;;;;;;4.90;4.80;;;35.80;43.90;;;;;;5041836;28;20972;-90
2023/06/24 09:48:47;;;;;;;4.53;4.43;;;36.20;43.00;;;;;;5033995;28;20463;-88
2023/06/24 09:51:14;;;;;;;5.00;4.90;;;36.10;43.30;;;;;;5043547;28;20464;-88
2023/06/24 09:53:41;;;;;;;4.20;4.20;;;36.70;42.60;;;;;;5045928;28;20267;-85
2023/06/24 09:56:10;;;;;;;3.83;3.73;;;35.90;42.80;;;;;;5038675;28;20458;-87
2023/06/24 09:58:37;;;;;;;4.57;4.47;;;36.80;42.40;;;;;;5125195;22;20476;-90
2023/06/24 10:01:07;;;;;;;4.60;4.50;;;37.00;42.00;;;;;;5030787;23;20487;-93
2023/06/24 10:04:01;;;;;;;4.47;4.03;;;37.40;41.70;;;;;;5001208;28;20543;-95
2023/06/24 10:06:34;;;;;;;4.50;4.40;;;38.20;41.10;;;;;;5002630;28;20442;-90
2023/06/24 10:09:04;;;;;;;3.70;3.60;;;37.90;40.50;;;;;;5009986;23;20483;-84
2023/06/24 10:11:30;;;;;;;5.17;4.77;;;38.00;39.90;;;;;;4967325;28;20797;-88
2023/06/24 10:13:56;;;;;;;4.37;4.17;;;37.40;40.80;;;;;;4990032;28;20617;-85
2023/06/24 10:16:25;;;;;;;4.47;4.20;;;36.90;43.40;;;;;;4994529;28;20951;-88
2023/06/24 10:19:09;;;;;;;5.03;4.77;;;37.00;47.40;;;;;;5006382;28;20183;-88
2023/06/24 10:21:50;;;;;;;5.70;5.27;;;36.70;44.20;;;;;;4984275;28;20431;-83
2023/06/24 10:26:51;;;;;;;4.50;4.30;;;37.20;45.80;;;;;;4069930;23;20568;-85
2023/06/24 10:29:20;;;;;;;4.30;4.10;;;38.10;40.60;;;;;;5002647;28;20542;-86
2023/06/24 10:31:55;;;;;;;3.83;3.73;;;39.00;40.30;;;;;;5010739;28;20852;-87
2023/06/24 10:34:46;;;;;;;4.80;4.40;;;38.60;39.30;;;;;;5013227;28;20533;-89
2023/06/24 10:37:41;;;;;;;4.60;4.60;;;38.60;38.90;;;;;;5019344;28;20437;-87
2023/06/24 10:43:38;;;;;;;3.67;3.57;;;37.70;38.50;;;;;;5009655;28;20423;-88
2023/06/24 10:46:15;;;;;;;3.80;3.73;;;37.80;37.80;;;;;;5020109;28;20399;-87
2023/06/24 10:48:41;;;;;;;4.60;4.40;;;38.20;38.40;;;;;;4984871;28;20458;-80
2023/06/24 10:51:07;;;;;;;6.47;4.50;;;38.60;38.60;;;;;;4998975;28;20761;-79
2023/06/24 10:53:33;;;;;;;4.40;4.20;;;38.40;38.30;;;;;;4993535;28;20431;-81
2023/06/24 10:55:59;;;;;;;3.83;3.83;;;39.00;38.30;;;;;;5000746;28;20423;-84
2023/06/24 10:58:24;;;;;;;5.33;4.10;;;39.60;37.70;;;;;;5001791;28;20457;-83
2023/06/24 11:00:50;;;;;;;4.20;4.10;;;39.80;37.50;;;;;;4984302;28;20199;-82
2023/06/24 11:03:18;;;;;;;4.10;3.93;;;39.90;37.80;;;;;;4998744;28;20192;-83
2023/06/24 11:05:45;;;;;;;4.50;4.43;;;39.80;37.20;;;;;;5000736;28;20287;-81
2023/06/24 11:08:11;;;;;;;4.50;4.47;;;39.80;37.60;;;;;;4996340;28;20475;-82
2023/06/24 11:10:49;;;;;;;4.03;4.03;;;40.00;37.00;;;;;;4984664;28;20556;-81
2023/06/24 11:13:15;;;;;;;9.47;9.00;;;40.20;37.30;;;;;;4998987;28;20210;-83
2023/06/24 11:15:44;;;;;;;4.70;4.60;;;39.80;37.70;;;;;;4991399;28;20839;-85
2023/06/24 11:18:10;;;;;;;4.87;4.50;;;39.80;37.90;;;;;;5017809;28;20494;-86
2023/06/24 11:20:37;;;;;;;3.60;3.60;;;40.30;37.90;;;;;;5017187;28;20447;-84
2023/06/24 11:23:09;;;;;;;4.73;4.33;;;40.70;36.20;;;;;;5018479;28;20436;-88
2023/06/24 11:25:42;;;;;;;4.30;4.20;;;40.10;36.50;;;;;;5029971;28;20444;-86
2023/06/24 11:30:45;;;;;;;5.20;4.73;;;39.70;36.60;;;;;;5400404;23;20487;-88
2023/06/24 11:33:11;;;;;;;11.63;10.80;;;39.40;37.30;;;;;;5023321;28;20455;-85
2023/06/24 11:35:37;;;;;;;4.60;4.50;;;39.20;37.60;;;;;;4991736;28;20455;-84
2023/06/24 11:38:03;;;;;;;5.93;5.50;;;38.70;37.70;;;;;;5013653;28;20177;-83
2023/06/24 11:40:32;;;;;;;5.40;5.20;;;38.70;37.80;;;;;;5010367;28;20444;-86
2023/06/24 11:43:00;;;;;;;5.20;5.10;;;39.10;37.90;;;;;;5024084;28;20446;-83
2023/06/24 11:45:26;;;;;;;5.20;4.90;;;39.20;38.20;;;;;;5015225;28;20446;-85
2023/06/24 11:47:52;;;;;;;4.90;4.80;;;39.10;37.10;;;;;;5021611;28;20519;-85
2023/06/24 11:50:25;;;;;;;5.60;5.50;;;39.20;37.80;;;;;;5020556;28;20205;-85
2023/06/24 11:52:52;;;;;;;5.43;5.23;;;39.20;37.80;;;;;;5018046;28;20504;-84
2023/06/24 11:55:19;;;;;;;5.00;4.90;;;38.80;38.20;;;;;;5020590;28;20525;-84
2023/06/24 11:58:01;;;;;;;5.30;5.00;;;39.00;37.30;;;;;;5017339;28;20520;-84
2023/06/24 12:00:36;;;;;;;4.60;4.50;;;39.20;37.60;;;;;;5020979;28;20478;-86
2023/06/24 12:03:07;;;;;;;5.00;4.90;;;39.70;37.00;;;;;;5024138;28;20510;-88
2023/06/24 12:05:34;;;;;;;4.30;4.20;;;39.70;36.60;;;;;;5021577;28;20470;-86
2023/06/24 12:08:08;;;;;;;5.43;5.10;;;40.30;36.20;;;;;;5020384;28;21000;-85
2023/06/24 12:10:35;;;;;;;4.40;4.23;;;40.00;36.10;;;;;;5016383;28;20479;-85
2023/06/24 12:13:05;;;;;;;4.87;4.73;;;40.50;36.70;;;;;;5003197;28;20593;-87
2023/06/24 12:15:37;;;;;;;5.80;5.40;;;40.50;35.60;;;;;;5020543;28;20446;-90
2023/06/24 12:18:09;;;;;;;4.07;3.97;;;39.90;35.60;;;;;;5023333;28;20458;-86
2023/06/24 12:20:36;;;;;;;4.00;3.90;;;40.00;35.60;;;;;;5015436;28;20432;-84
2023/06/24 12:23:03;;;;;;;3.83;3.70;;;40.20;35.50;;;;;;5014366;28;20432;-88
2023/06/24 12:25:29;;;;;;;4.50;4.20;;;40.10;35.20;;;;;;5013136;28;20834;-88
2023/06/24 12:27:55;;;;;;;3.50;3.50;;;40.40;35.20;;;;;;5016047;28;20609;-87
2023/06/24 12:30:21;;;;;;;4.10;4.10;;;40.30;35.40;;;;;;5009767;28;20734;-84
2023/06/24 12:32:51;;;;;;;4.17;4.07;;;40.60;35.00;;;;;;5006133;28;20439;-89
2023/06/24 12:35:18;;;;;;;3.97;3.87;;;40.50;34.20;;;;;;5012934;28;20434;-88
2023/06/24 12:37:48;;;;;;;3.30;3.30;;;40.20;34.10;;;;;;5019519;28;20560;-90
2023/06/24 12:40:15;;;;;;;3.63;3.53;;;40.20;34.50;;;;;;5011436;28;20439;-91
2023/06/24 12:42:40;;;;;;;4.00;3.90;;;40.20;34.60;;;;;;4999461;28;20516;-90
2023/06/24 12:45:09;;;;;;;3.53;3.53;;;39.10;33.40;;;;;;4993064;28;21005;-89
2023/06/24 12:47:35;;;;;;;2.97;2.97;;;38.90;34.10;;;;;;5013343;28;20335;-86
2023/06/24 12:50:34;;;;;;;3.10;3.10;;;39.40;33.40;;;;;;5015167;28;20679;-92
2023/06/24 12:53:22;;;;;;;3.40;3.40;;;39.70;33.70;;;;;;5000166;28;20177;-89
2023/06/24 12:55:48;;;;;;;3.97;3.77;;;39.30;32.90;;;;;;5015097;28;20439;-88
2023/06/24 12:58:19;;;;;;;3.13;3.03;;;39.40;33.80;;;;;;5017897;28;20726;-89
2023/06/24 13:00:45;;;;;;;3.90;3.77;;;39.80;33.80;;;;;;4992698;28;20177;-89
2023/06/24 13:03:10;;;;;;;3.27;3.23;;;40.20;34.40;;;;;;5015481;28;20453;-90
2023/06/24 13:05:36;;;;;;;3.07;2.97;;;40.40;33.80;;;;;;5019654;28;20196;-88
2023/06/24 13:08:06;;;;;;;3.47;3.37;;;40.20;33.40;;;;;;5020370;28;20200;-88
2023/06/24 13:10:32;;;;;;;7.47;7.10;;;40.30;33.20;;;;;;5029195;28;20192;-89
2023/06/24 13:12:59;;;;;;;3.40;3.30;;;40.50;32.40;;;;;;5025946;28;20440;-86
2023/06/24 13:15:25;;;;;;;3.80;3.80;;;40.80;32.40;;;;;;5028746;28;20428;-91
2023/06/24 13:17:51;;;;;;;4.37;4.27;;;40.50;33.20;;;;;;5011723;28;20471;-84
2023/06/24 13:20:20;;;;;;;3.37;3.33;;;39.80;33.70;;;;;;5023102;28;20474;-85
2023/06/24 13:22:47;;;;;;;3.67;3.57;;;39.10;33.00;;;;;;5021881;28;20185;-88
2023/06/24 13:25:14;;;;;;;4.37;3.80;;;38.90;34.10;;;;;;5025354;28;20439;-87
2023/06/24 13:27:41;;;;;;;3.60;3.60;;;39.10;34.10;;;;;;5030137;28;20446;-84